NCAR-RAP Real-Time Weather Data

Output produced by METARs form (23 January 2018  15:53 UTC)
found at http://weather.rap.ucar.edu/surface/
 
RJSK 231200Z 32012G22KT 290V350 5000 -SHSN FEW007 SCT015 BKN025 M03/M06 Q1006
RJSK 231100Z 30013KT 9999 -SHSN FEW007 SCT030 BKN040 M02/M07 Q1005
RJSK 231000Z 31015KT 9999 -SHSN FEW007 SCT020 BKN030 M01/M05 Q1004
RJSK 230900Z 31014KT 9999 -SHSN FEW005 BKN030 BKN040 M00/M07 Q1003
RJSK 230800Z 32013KT 9999 FEW010 SCT030 BKN040 00/M06 Q1002
RJSK 230700Z 32013KT 9999 VCSH FEW010 SCT025 BKN030 01/M05 Q1000
RJSK 230600Z 30024G34KT 9999 VCSH FEW010 SCT025 BKN035 02/M04 Q0999
RJSK 230500Z 26013G23KT 9999 -SHSNRA FEW007 SCT025 BKN040 03/M01 Q0996
RJSK 230443Z 27012KT 9999 -SHSNRA FEW005 SCT025 BKN050 03/M00 Q0995 RMK 1ST005 3CU025 5CU050 A2941
RJSK 230429Z 27021G35KT 8000 -TSSNRA FEW005 SCT015 FEW015CB BKN025 02/M00 Q0995 RMK 1ST005 3CU015 1CB015 5CU025 A2940 FBL TS 15KM NE MOV NE
RJSK 230422Z 27026KT 3000 -TSSNGS FEW005 SCT010 BKN015 FEW015CB 02/M00 Q0996 RMK 1ST005 3ST010 6CU015 1CB015 A2941 FBL TS OHD MOV NE SNOW PELLETS
RJSK 230400Z 21006KT 150V290 6000 -SHSN FEW002 SCT008 BKN015 02/00 Q0995
RJSK 230347Z VRB06KT 2000 R28/0700VP1800U -SHSN FEW001 SCT003 BKN008 FEW015CB 01/M00 Q0996 RMK 2ST001 4ST003 6ST008 1CB015 A2941 CB 5KM NE MOV NE
RJSK 230341Z VRB06KT 0400 R28/1100VP1800D SHSN SCT001 BKN002 BKN003 FEW015CB 00/M00 Q0996 RMK 3ST001 5ST002 6ST003 1CB015 A2943 CB 5KM SW MOV NE
RJSK 230333Z VRB06KT 0700 R28/1000VP1800U SHSN SCT001 SCT002 BKN003 FEW015CB 00/M00 Q0996 RMK 3ST001 4ST002 6ST003 1CB015 A2941 CB 20KM NE MOV NE
RJSK 230322Z VRB05KT 0200 R28/0750VP1800D TSSN VV002 00/M00 Q0995 RMK A2941 FBL TS OHD MOV NE
RJSK 230300Z 15007KT 120V200 0300 R28/0900V1500D TSSN SCT001 BKN002 BKN005 FEW015CB 01/M00 Q0996
RJSK 230247Z 14007KT 110V170 0400 R28/0600V1200D TSSN FEW002 BKN003 BKN005 FEW015CB 00/M01 Q0996 RMK 2ST002 5ST003 6ST005 1CB015 A2943 FBL TS OHD MOV NE
RJSK 230245Z 14007KT 0400 R28/0600V1300D TSSN FEW002 BKN003 BKN005 FEW015CB 00/M01 Q0996 RMK 2ST002 5ST003 6ST005 1CB015 A2942 FBL TS 10KM NE MOV NE
RJSK 230242Z 14008KT 0300 R28/0600V1600D TSSN FEW002 BKN003 BKN005 FEW015CB 01/M01 Q0996 RMK 2ST002 5ST003 6ST005 1CB015 A2942 FBL TS OHD MOV NE
RJSK 230224Z 14009KT 110V170 0500 R28/1300VP1800D SHSN FEW002 BKN003 BKN005 01/M01 Q0996 RMK 2ST002 5ST003 6ST005 A2943 CB 20KM N MOV NE
RJSK 230216Z 14010KT 0500 R28/1600VP1800N SHSN FEW002 BKN003 BKN005 00/M01 Q0996 RMK 2ST002 5ST003 6ST005 A2942 CB 20KM N MOV NE
RJSK 230200Z 14010KT 3000 R28/1000VP1800U -SHSN FEW003 SCT005 BKN009 00/M01 Q0997
RJSK 230145Z 14010KT 0400 R28/1200VP1800D SHSN FEW003 BKN005 BKN012 01/M02 Q0997 RMK 2ST003 5ST005 6ST012 A2945
RJSK 230138Z 14009KT 1600 -SHSN FEW005 BKN010 BKN020 01/M02 Q0997 RMK 1ST005 5ST010 6CU020 A2946
RJSK 230131Z 14010KT 2500 -SHSN FEW005 SCT010 BKN020 01/M02 Q0997 RMK 1ST005 3ST010 5CU020 A2947
RJSK 230100Z 13010KT 9999 FEW015 SCT025 BKN040 00/M02 Q0998
RJSK 230045Z 13009KT 9999 -SHSN FEW010 SCT020 BKN035 00/M02 Q0998 RMK 1ST010 3CU020 6CU035 A2950
RJSK 230029Z 13010KT 4000 -SHSN FEW007 SCT015 BKN025 00/M02 Q0999 RMK 1ST007 4CU015 6CU025 A2951 9999E
RJSK 230000Z 13010KT 9999 VCSH FEW010 SCT025 BKN035 M00/M02 Q0999
RJSK 222300Z 14009KT 9999 -SHSN FEW015 SCT020 BKN030 M01/M03 Q1001
RJSK 222200Z 12005KT 9999 FEW005 SCT040 BKN070 M02/M03 Q1002
RJSK 222140Z 12008KT 9999 FEW004 SCT040 BKN070 M01/M03 Q1002 RMK 1ST004 3SC040 5AC070 A2961
RJSK 221200Z 11010KT 6000 -SN FEW010 SCT040 BKN060 M02/M04 Q1012
RJSK 221123Z 11012KT 4500 -SN FEW003 SCT010 BKN020 M03/M04 Q1013 RMK 1ST003 3ST010 5CU020 A2992
RJSK 221100Z 12009KT 3000 -SN FEW001 SCT003 BKN009 M03/M04 Q1013
RJSK 221036Z 12009KT 2000 -SN FEW001 SCT003 BKN009 M03/M04 Q1014 RMK 1ST001 3ST003 5ST009 A2995
RJSK 221000Z 12009KT 2500 -SN FEW005 SCT010 BKN020 M03/M05 Q1015
RJSK 220944Z 13009KT 3000 -SN FEW005 SCT010 BKN020 M03/M06 Q1015 RMK 1ST005 3ST010 6SC020 A2999
RJSK 220936Z 13009KT 4000 -SN FEW005 SCT012 BKN020 M03/M06 Q1015 RMK 1ST005 3ST012 5SC020 A2999
RJSK 220900Z 13009KT 9999 -SN FEW015 SCT020 BKN030 M03/M07 Q1015
RJSK 220800Z 14006KT 9999 FEW015 SCT025 BKN035 M03/M07 Q1015
RJSK 220700Z 13004KT 9999 FEW020 SCT035 BKN060 M03/M08 Q1015
RJSK 220600Z VRB02KT 9999 FEW020 SCT060 BKN090 M02/M09 Q1016
RJSK 220500Z 10006KT 9999 FEW020 SCT070 BKN100 M02/M10 Q1016
RJSK 220400Z 13006KT 100V170 9999 FEW020 SCT100 BKN130 M03/M11 Q1018
RJSK 220300Z 11006KT 090V150 9999 FEW020 SCT120 BKN150 M03/M09 Q1020
RJSK 220200Z 11009KT 9999 FEW020 SCT100 BKN130 M04/M09 Q1021
RJSK 220100Z 10005KT 9999 FEW020 BKN140 BKN160 M06/M09 Q1023
RJSK 220000Z 13005KT 9999 FEW020 BKN140 M07/M10 Q1023
RJSK 212300Z 13005KT 9999 FEW020 BKN/// M08/M11 Q1023
RJSK 212200Z 12003KT 9999 FEW020 BKN/// M10/M11 Q1022
RJSK 212140Z 14003KT 9999 FEW020 BKN/// M09/M11 Q1022 RMK 1CU020 A3020
RJSK 211200Z 26008KT 9999 FEW015 SCT030 BKN045 M04/M10 Q1021
RJSK 211100Z 27008KT 9999 FEW010 BKN040 M04/M10 Q1021
RJSK 211000Z 28009KT 9999 FEW010 SCT040 M04/M10 Q1020
RJSK 210900Z 30011KT 9999 FEW007 SCT015 BKN030 M02/M08 Q1020
RJSK 210837Z 30010KT 9999 -SHSN FEW007 SCT015 BKN020 M02/M07 Q1019 RMK 1ST007 4CU015 5CU020 A3012
RJSK 210811Z 32008KT 4500 -SHSN FEW005 SCT010 BKN018 M03/M05 Q1019 RMK 1ST005 3ST010 5CU018 A3011 9999W-NW
RJSK 210800Z 31008KT 2500 -SHSN FEW005 SCT007 BKN015 M03/M05 Q1019
RJSK 210750Z 31010KT 1000 R28/P1800N -SHSN FEW004 BKN006 BKN010 M03/M04 Q1019 RMK 1ST004 5ST006 6ST010 A3010
RJSK 210740Z 32008KT 280V350 1200 R28/P1800N -SHSN FEW004 BKN008 BKN012 M03/M05 Q1019 RMK 1ST004 5ST008 6ST012 A3009
RJSK 210731Z 32011KT 300V360 0900 R28/P1800N SHSN FEW004 BKN007 BKN012 M02/M05 Q1019 RMK 1ST004 5ST007 6ST012 A3009
RJSK 210726Z 32010KT 300V360 1200 R28/P1800N -SHSN FEW004 SCT007 BKN012 M02/M05 Q1018 RMK 1ST004 4ST007 5ST012 A3009
RJSK 210723Z 33009KT 3000 -SHSN FEW004 SCT007 BKN015 M02/M06 Q1018 RMK 1ST004 3ST007 5CU015 A3009
RJSK 210700Z 28010KT 7000 -SHSN FEW006 SCT012 BKN015 M02/M06 Q1018
RJSK 210644Z 29009KT 4500 -SHSN FEW003 SCT008 BKN012 M02/M05 Q1018 RMK 1ST003 3ST008 5ST012 A3007
RJSK 210641Z 29010KT 2000 -SHSN FEW003 SCT006 BKN010 M02/M05 Q1018 RMK 1ST003 3ST006 5ST010 A3007
RJSK 210630Z 30011KT 3000 -SHSN FEW003 SCT010 BKN015 M02/M05 Q1018 RMK 1ST003 3ST010 5CU015 A3007
RJSK 210621Z 32008KT 280V360 1600 -SHSN FEW003 SCT007 BKN012 M02/M04 Q1018 RMK 1ST003 3ST007 5ST012 A3006
RJSK 210600Z 33009KT 300V010 1000 R28/P1800N -SHSN FEW003 SCT005 BKN010 M02/M05 Q1017
RJSK 210548Z 32010KT 300V360 2000 -SHSN FEW003 SCT007 BKN010 M01/M05 Q1017 RMK 1ST003 3ST007 5ST010 A3004
RJSK 210532Z 32010KT 3500 -SHSN FEW004 SCT007 BKN012 M01/M05 Q1017 RMK 1ST004 3ST007 5ST012 A3003
RJSK 210529Z 32010KT 2500 -SHSN FEW004 SCT007 BKN012 M01/M05 Q1017 RMK 1ST004 3ST007 5ST012 A3003
RJSK 210500Z 33006KT 4500 -SHSN FEW005 SCT010 BKN015 M01/M04 Q1016
RJSK 210439Z 32008KT 280V350 5000 -SHSN FEW005 SCT010 BKN015 M01/M03 Q1016 RMK 1ST005 3ST010 5CU015 A3000
RJSK 210407Z 32010KT 280V350 3000 -SHSN FEW005 SCT008 BKN015 M01/M03 Q1015 RMK 1ST005 3ST008 5CU015 A2999
RJSK 210400Z 32009KT 280V350 4000 -SHSN FEW005 SCT008 BKN015 M01/M03 Q1015